createdAt,value
2018-07-06T00:00:07.241Z,61.18
2018-07-06T00:02:52.484Z,60.86
2018-07-06T00:05:31.865Z,61.12
2018-07-06T00:08:16.938Z,60.23
2018-07-06T00:11:02.150Z,60.61
2018-07-06T00:13:47.157Z,60.71
2018-07-06T00:16:32.258Z,60.09
2018-07-06T00:19:17.320Z,59.31
2018-07-06T00:22:02.503Z,60.30
2018-07-06T00:24:47.571Z,61.07
2018-07-06T00:27:32.765Z,60.20
2018-07-06T00:30:17.961Z,60.79
2018-07-06T00:33:03.102Z,61.03
2018-07-06T00:35:48.234Z,61.87
2018-07-06T00:38:33.503Z,59.03
2018-07-06T00:41:18.640Z,61.44
2018-07-06T00:44:03.706Z,61.65
2018-07-06T00:46:48.799Z,60.51
2018-07-06T00:49:34.128Z,61.09
2018-07-06T00:52:19.760Z,60.93
2018-07-06T00:55:05.093Z,60.09
2018-07-06T00:57:50.899Z,60.34
2018-07-06T01:00:30.360Z,60.71
2018-07-06T01:03:15.462Z,60.75
2018-07-06T01:06:00.557Z,61.73
2018-07-06T01:08:45.725Z,61.93
2018-07-06T01:11:31.124Z,61.36
2018-07-06T01:14:16.229Z,59.18
2018-07-06T01:17:01.310Z,59.40
2018-07-06T01:19:46.370Z,58.11
2018-07-06T01:22:31.503Z,60.70
2018-07-06T01:25:16.693Z,60.31
2018-07-06T01:28:01.845Z,61.04
2018-07-06T01:30:46.909Z,62.42
2018-07-06T01:33:32.181Z,61.90
2018-07-06T01:36:17.277Z,61.53
2018-07-06T01:39:02.503Z,61.50
2018-07-06T01:41:47.760Z,61.01
2018-07-06T01:44:32.957Z,61.93
2018-07-06T01:47:18.228Z,59.68
2018-07-06T01:50:03.565Z,61.46
2018-07-06T01:52:48.909Z,62.68
2018-07-06T01:55:34.308Z,62.97
2018-07-06T01:58:19.747Z,63.50
2018-07-06T02:01:04.742Z,64.49
2018-07-06T02:03:49.893Z,60.22
2018-07-06T02:06:35.140Z,63.01
2018-07-06T02:09:20.513Z,62.95
2018-07-06T02:11:59.743Z,64.67
2018-07-06T02:14:44.920Z,62.74
2018-07-06T02:17:30.049Z,63.78
2018-07-06T02:20:15.422Z,63.39
2018-07-06T02:23:00.944Z,63.90
2018-07-06T02:25:45.958Z,63.46
2018-07-06T02:28:31.132Z,63.43
2018-07-06T02:31:16.481Z,64.99
2018-07-06T02:34:01.557Z,65.39
2018-07-06T02:36:46.622Z,63.69
2018-07-06T02:39:31.789Z,65.88
2018-07-06T02:42:17.093Z,64.31
2018-07-06T02:45:02.248Z,64.50
2018-07-06T02:47:41.648Z,65.04
2018-07-06T02:50:26.849Z,63.02
2018-07-06T02:53:11.945Z,64.96
2018-07-06T02:55:57.215Z,65.95
2018-07-06T02:58:42.326Z,65.50
2018-07-06T03:01:27.494Z,64.13
2018-07-06T03:04:12.717Z,66.72
2018-07-06T03:06:57.827Z,64.63
2018-07-06T03:09:42.985Z,65.88
2018-07-06T03:12:28.061Z,65.81
2018-07-06T03:15:13.201Z,64.76
2018-07-06T03:17:58.490Z,64.57
2018-07-06T03:20:43.839Z,66.92
2018-07-06T03:23:28.921Z,66.68
2018-07-06T03:26:14.078Z,66.85
2018-07-06T03:28:59.205Z,65.29
2018-07-06T03:31:44.398Z,65.51
2018-07-06T03:34:29.386Z,65.80
2018-07-06T03:37:14.660Z,66.76
2018-07-06T03:39:59.783Z,65.56
2018-07-06T03:42:45.017Z,65.95
2018-07-06T03:45:29.989Z,64.93
2018-07-06T03:48:15.074Z,65.03
2018-07-06T03:51:00.289Z,62.46
2018-07-06T03:53:46.177Z,65.41
2018-07-06T03:56:31.416Z,65.22
2018-07-06T03:59:16.681Z,66.31
2018-07-06T04:02:01.841Z,66.08
2018-07-06T04:04:47.065Z,65.36
2018-07-06T04:07:32.085Z,66.31
2018-07-06T04:10:17.363Z,64.28
2018-07-06T04:13:02.464Z,64.96
2018-07-06T04:15:47.621Z,64.37
2018-07-06T04:18:32.615Z,64.73
2018-07-06T04:21:17.701Z,64.62
2018-07-06T04:24:02.938Z,64.52
2018-07-06T04:26:48.122Z,63.78
2018-07-06T04:29:33.337Z,65.43
2018-07-06T04:32:18.378Z,63.93
2018-07-06T04:35:03.577Z,64.33
2018-07-06T04:37:49.123Z,64.99
2018-07-06T04:40:34.312Z,65.57
2018-07-06T04:43:13.565Z,64.52
2018-07-06T04:45:58.890Z,65.25
2018-07-06T04:48:44.177Z,63.92
2018-07-06T04:51:29.275Z,62.73
2018-07-06T04:54:14.332Z,63.75
2018-07-06T04:56:59.544Z,64.29
2018-07-06T04:59:44.923Z,62.85
2018-07-06T05:02:30.224Z,60.42
2018-07-06T05:05:15.252Z,58.16
2018-07-06T05:08:00.830Z,56.75
2018-07-06T05:10:46.109Z,55.15
2018-07-06T05:13:31.469Z,51.50
2018-07-06T05:16:16.821Z,50.88
2018-07-06T05:19:01.918Z,48.18
2018-07-06T05:21:46.981Z,47.27
2018-07-06T05:24:32.209Z,46.12
2018-07-06T05:27:17.217Z,45.57
2018-07-06T05:30:02.378Z,44.04
2018-07-06T05:32:47.769Z,42.62
2018-07-06T05:35:32.902Z,41.25
2018-07-06T05:38:18.013Z,40.46
2018-07-06T05:41:03.073Z,38.86
2018-07-06T05:43:48.164Z,37.69
2018-07-06T05:46:33.565Z,36.78
2018-07-06T05:49:18.728Z,35.43
2018-07-06T05:52:03.921Z,34.22
2018-07-06T05:54:49.012Z,34.70
2018-07-06T05:57:34.201Z,35.53
2018-07-06T06:00:19.437Z,35.79
2018-07-06T06:02:58.669Z,36.74
2018-07-06T06:05:43.849Z,36.44
2018-07-06T06:08:10.284Z,38.56
2018-07-06T06:10:38.197Z,38.83
2018-07-06T06:13:06.313Z,39.78
2018-07-06T06:15:34.229Z,39.46
2018-07-06T06:18:02.157Z,39.46
2018-07-06T06:20:30.094Z,39.81
2018-07-06T06:22:57.959Z,39.40
2018-07-06T06:25:25.898Z,38.20
2018-07-06T06:27:53.770Z,39.84
2018-07-06T06:30:21.690Z,38.95
2018-07-06T06:32:49.763Z,39.89
2018-07-06T06:35:17.756Z,39.21
2018-07-06T06:37:45.821Z,38.65
2018-07-06T06:40:13.700Z,39.52
2018-07-06T06:42:41.650Z,39.78
2018-07-06T06:45:09.821Z,40.88
2018-07-06T06:47:39.245Z,41.01
2018-07-06T06:50:07.405Z,40.52
2018-07-06T06:52:35.816Z,41.15
2018-07-06T06:55:03.910Z,41.17
2018-07-06T06:57:31.892Z,41.48
2018-07-06T06:59:59.973Z,41.02
2018-07-06T07:02:27.960Z,40.73
2018-07-06T07:04:55.868Z,41.17
2018-07-06T07:07:23.888Z,41.45
2018-07-06T07:09:51.786Z,42.16
2018-07-06T07:12:19.766Z,42.06
2018-07-06T07:14:47.758Z,42.33
2018-07-06T07:17:15.846Z,41.43
2018-07-06T07:19:43.941Z,41.34
2018-07-06T07:22:11.948Z,40.75
2018-07-06T07:24:40.108Z,41.61
2018-07-06T07:27:08.062Z,41.43
2018-07-06T07:29:36.049Z,41.62
2018-07-06T07:32:03.989Z,41.82
2018-07-06T07:34:31.942Z,41.85
2018-07-06T07:36:59.825Z,42.29
2018-07-06T07:39:27.725Z,42.27
2018-07-06T07:41:55.759Z,42.87
2018-07-06T07:44:23.765Z,42.17
2018-07-06T07:46:51.825Z,43.38
2018-07-06T07:49:19.729Z,42.85
2018-07-06T07:52:07.356Z,43.45
2018-07-06T07:54:42.643Z,43.63
2018-07-06T07:57:10.633Z,43.01
2018-07-06T07:59:39.352Z,43.77
2018-07-06T08:02:07.405Z,43.24
2018-07-06T08:04:35.421Z,45.13
2018-07-06T08:07:03.421Z,44.95
2018-07-06T08:09:32.244Z,45.20
2018-07-06T08:12:01.478Z,45.52
2018-07-06T08:14:29.511Z,45.57
2018-07-06T08:16:57.429Z,44.82
2018-07-06T08:19:25.401Z,45.63
2018-07-06T08:21:53.492Z,45.58
2018-07-06T08:24:21.581Z,44.78
2018-07-06T08:26:49.665Z,45.88
2018-07-06T08:29:17.536Z,45.43
2018-07-06T08:31:45.684Z,44.38
2018-07-06T08:34:30.925Z,44.66
2018-07-06T08:37:44.739Z,44.27
2018-07-06T08:40:12.840Z,44.54
2018-07-06T08:42:44.113Z,43.79
2018-07-06T08:45:12.397Z,43.20
2018-07-06T08:47:40.700Z,43.55
2018-07-06T08:50:08.894Z,44.25
2018-07-06T08:52:37.607Z,43.45
2018-07-06T08:55:05.929Z,43.33
2018-07-06T08:57:34.487Z,43.71
2018-07-06T09:00:02.408Z,44.23
2018-07-06T09:02:30.333Z,42.88
2018-07-06T09:04:59.050Z,43.15
2018-07-06T09:07:27.033Z,43.61
2018-07-06T09:09:55.713Z,43.26
2018-07-06T09:12:23.644Z,43.16
2018-07-06T09:14:51.581Z,43.19
2018-07-06T09:17:20.157Z,42.48
2018-07-06T09:19:48.459Z,41.43
2018-07-06T09:22:16.849Z,42.15
2018-07-06T09:24:45.684Z,42.63
2018-07-06T09:27:13.701Z,41.74
2018-07-06T09:29:41.712Z,41.79
2018-07-06T09:32:09.734Z,40.69
2018-07-06T09:34:37.837Z,40.25
2018-07-06T09:37:06.081Z,39.75
2018-07-06T09:39:33.896Z,40.36
2018-07-06T09:42:02.014Z,40.47
2018-07-06T09:44:30.013Z,39.81
2018-07-06T09:46:58.077Z,39.75
2018-07-06T09:49:26.066Z,39.51
2018-07-06T09:51:54.270Z,38.88
2018-07-06T09:54:22.157Z,38.19
2018-07-06T09:56:50.097Z,36.47
2018-07-06T09:59:18.021Z,34.95
2018-07-06T10:01:45.970Z,34.03
2018-07-06T10:04:13.835Z,31.87
2018-07-06T10:06:41.756Z,30.03
2018-07-06T10:09:10.229Z,28.15
2018-07-06T10:11:38.158Z,26.61
2018-07-06T10:14:06.084Z,25.96
2018-07-06T10:16:34.065Z,24.06
2018-07-06T10:19:01.984Z,22.65
2018-07-06T10:21:29.792Z,24.24
2018-07-06T10:23:57.676Z,23.96
2018-07-06T10:26:25.534Z,24.82
2018-07-06T10:30:13.326Z,24.52
2018-07-06T10:32:41.186Z,25.05
2018-07-06T10:35:08.992Z,24.93
2018-07-06T10:37:36.869Z,23.61
2018-07-06T10:40:05.091Z,23.01
2018-07-06T10:42:32.827Z,22.85
2018-07-06T10:45:00.738Z,23.12
2018-07-06T10:47:28.644Z,22.58
2018-07-06T10:49:56.529Z,22.38
2018-07-06T10:52:24.435Z,21.66
2018-07-06T10:54:52.397Z,21.00
2018-07-06T10:57:20.209Z,20.80
2018-07-06T10:59:48.075Z,21.05
2018-07-06T11:02:15.860Z,20.97
2018-07-06T11:04:43.800Z,22.36
2018-07-06T11:07:11.709Z,23.19
2018-07-06T11:09:39.497Z,23.71
2018-07-06T11:12:07.353Z,21.60
2018-07-06T11:14:35.277Z,20.89
2018-07-06T11:17:03.242Z,21.23
2018-07-06T11:19:31.121Z,22.25
2018-07-06T11:21:59.002Z,22.47
2018-07-06T11:24:26.896Z,22.24
2018-07-06T11:26:54.788Z,21.97
2018-07-06T11:29:22.681Z,21.92
2018-07-06T11:31:50.508Z,22.35
2018-07-06T11:34:18.398Z,22.45
2018-07-06T11:36:46.309Z,22.20
2018-07-06T11:39:14.225Z,21.87
2018-07-06T11:41:42.220Z,21.44
2018-07-06T11:44:10.137Z,21.84
2018-07-06T11:46:38.078Z,22.17
2018-07-06T11:49:06.026Z,21.78
2018-07-06T11:51:33.969Z,21.85
2018-07-06T11:54:01.930Z,22.05
2018-07-06T11:56:29.805Z,21.60
2018-07-06T11:58:57.756Z,21.29
2018-07-06T12:01:25.649Z,20.50
2018-07-06T12:03:53.530Z,20.15
2018-07-06T12:06:21.549Z,20.50
2018-07-06T12:08:49.537Z,21.04
2018-07-06T12:11:17.409Z,21.79
2018-07-06T12:13:45.280Z,21.60
2018-07-06T12:16:13.216Z,21.00
2018-07-06T12:18:41.096Z,20.54
2018-07-06T12:21:09.073Z,20.46
2018-07-06T12:23:36.999Z,19.64
2018-07-06T12:26:04.997Z,19.91
2018-07-06T12:28:32.874Z,20.39
2018-07-06T12:31:00.869Z,20.30
2018-07-06T12:33:28.722Z,21.50
2018-07-06T12:35:56.596Z,21.25
2018-07-06T12:38:24.512Z,21.67
2018-07-06T12:40:52.601Z,20.87
2018-07-06T12:43:21.383Z,19.73
2018-07-06T12:45:49.311Z,20.80
2018-07-06T12:48:17.236Z,19.86
2018-07-06T12:50:49.588Z,20.18
2018-07-06T12:53:17.544Z,19.74
2018-07-06T12:55:45.441Z,18.49
2018-07-06T12:58:13.372Z,19.89
2018-07-06T13:00:41.183Z,18.89
2018-07-06T13:03:09.076Z,20.35
2018-07-06T13:05:38.116Z,20.96
2018-07-06T13:08:06.013Z,20.02
2018-07-06T13:10:34.013Z,20.22
2018-07-06T13:13:01.857Z,20.25
2018-07-06T13:15:29.740Z,20.32
2018-07-06T13:17:57.829Z,21.24
2018-07-06T13:20:25.701Z,21.48
2018-07-06T13:22:53.488Z,22.36
2018-07-06T13:25:21.375Z,22.09
2018-07-06T13:27:49.268Z,22.63
2018-07-06T13:30:17.197Z,21.74
2018-07-06T13:32:45.212Z,22.15
2018-07-06T13:35:13.093Z,22.91
2018-07-06T13:37:40.965Z,21.17
2018-07-06T13:40:08.898Z,21.62
2018-07-06T13:42:36.772Z,23.24
2018-07-06T13:45:04.723Z,22.44
2018-07-06T13:47:33.055Z,23.52
2018-07-06T13:50:02.003Z,22.99
2018-07-06T13:52:29.845Z,22.88
2018-07-06T13:54:57.641Z,21.62
2018-07-06T13:57:25.649Z,22.47
2018-07-06T13:59:53.470Z,20.59
2018-07-06T14:02:21.369Z,22.26
2018-07-06T14:04:49.284Z,22.58
2018-07-06T14:07:17.253Z,20.75
2018-07-06T14:09:45.133Z,19.65
2018-07-06T14:12:13.093Z,20.44
2018-07-06T14:14:41.057Z,21.65
2018-07-06T14:17:09.023Z,21.48
2018-07-06T14:19:36.933Z,22.73
2018-07-06T14:22:04.849Z,22.21
2018-07-06T14:24:32.751Z,21.96
2018-07-06T14:27:00.668Z,23.27
2018-07-06T14:29:28.904Z,22.00
2018-07-06T14:31:57.061Z,22.58
2018-07-06T14:34:24.941Z,22.47
2018-07-06T14:36:52.908Z,22.29
2018-07-06T14:39:20.827Z,22.48
2018-07-06T14:41:48.766Z,23.08
2018-07-06T14:44:16.649Z,22.65
2018-07-06T14:46:45.126Z,23.56
2018-07-06T14:49:13.037Z,23.27
2018-07-06T14:51:41.357Z,23.25
2018-07-06T14:54:09.209Z,24.06
2018-07-06T14:56:37.066Z,23.35
2018-07-06T14:59:05.752Z,23.71
2018-07-06T15:01:34.105Z,23.89
2018-07-06T15:04:02.640Z,24.19
2018-07-06T15:06:31.157Z,24.36
2018-07-06T15:08:59.029Z,23.16
2018-07-06T15:11:26.873Z,24.34
2018-07-06T15:13:54.765Z,23.68
2018-07-06T15:16:22.666Z,24.63
2018-07-06T15:18:50.537Z,23.61
2018-07-06T15:21:18.457Z,24.22
2018-07-06T15:23:46.361Z,24.11
2018-07-06T15:26:14.310Z,23.38
2018-07-06T15:28:42.248Z,23.25
2018-07-06T15:31:10.182Z,24.83
2018-07-06T15:33:38.087Z,25.52
2018-07-06T15:36:05.985Z,25.03
2018-07-06T15:38:33.876Z,25.67
2018-07-06T15:41:01.769Z,25.10
2018-07-06T15:43:29.657Z,25.05
2018-07-06T15:45:57.538Z,25.59
2018-07-06T15:48:25.362Z,25.00
2018-07-06T15:50:53.351Z,24.39
2018-07-06T15:53:21.233Z,24.45
2018-07-06T15:55:49.378Z,25.49
2018-07-06T15:58:17.229Z,24.74
2018-07-06T16:00:45.149Z,25.24
2018-07-06T16:03:13.045Z,25.22
2018-07-06T16:05:41.025Z,25.23
2018-07-06T16:08:08.940Z,25.93
2018-07-06T16:10:36.857Z,24.99
2018-07-06T16:13:04.708Z,25.99
2018-07-06T16:15:32.582Z,26.29
2018-07-06T16:18:00.813Z,25.99
2018-07-06T16:20:28.716Z,26.68
2018-07-06T16:22:56.643Z,27.00
2018-07-06T16:25:26.482Z,27.55
2018-07-06T16:27:54.481Z,27.05
2018-07-06T16:30:22.294Z,27.35
2018-07-06T16:32:50.225Z,27.53
2018-07-06T16:35:18.101Z,27.90
2018-07-06T16:37:45.997Z,27.75
2018-07-06T16:40:13.896Z,28.33
2018-07-06T16:42:41.803Z,28.12
2018-07-06T16:45:09.669Z,27.67
2018-07-06T16:47:37.594Z,28.91
2018-07-06T16:50:05.526Z,28.89
2018-07-06T16:52:33.532Z,28.20
2018-07-06T16:55:01.514Z,28.42
2018-07-06T16:57:29.464Z,28.27
2018-07-06T16:59:57.457Z,28.73
2018-07-06T17:02:25.261Z,28.16
2018-07-06T17:04:53.131Z,28.51
2018-07-06T17:07:21.171Z,28.75
2018-07-06T17:09:49.097Z,29.34
2018-07-06T17:12:17.077Z,29.74
2018-07-06T17:14:45.032Z,29.84
2018-07-06T17:17:12.993Z,29.26
2018-07-06T17:19:40.934Z,29.57
2018-07-06T17:22:08.849Z,29.96
2018-07-06T17:24:36.883Z,30.11
2018-07-06T17:27:04.839Z,30.68
2018-07-06T17:29:33.037Z,31.10
2018-07-06T17:32:01.043Z,31.21
2018-07-06T17:34:29.802Z,31.17
2018-07-06T17:36:58.550Z,31.37
2018-07-06T17:39:26.473Z,31.49
2018-07-06T17:41:54.390Z,31.96
2018-07-06T17:44:22.431Z,31.94
2018-07-06T17:46:50.325Z,32.35
2018-07-06T17:49:19.099Z,31.88
2018-07-06T17:51:47.019Z,30.49
2018-07-06T17:54:15.815Z,30.47
2018-07-06T17:56:44.186Z,30.61
2018-07-06T17:59:12.330Z,31.05
2018-07-06T18:01:40.375Z,31.19
2018-07-06T18:04:08.904Z,31.32
2018-07-06T18:06:37.482Z,31.43
2018-07-06T18:09:05.989Z,31.59
2018-07-06T18:11:33.914Z,31.57
2018-07-06T18:14:02.012Z,32.19
2018-07-06T18:16:31.218Z,32.94
2018-07-06T18:18:59.245Z,33.14
2018-07-06T18:21:27.393Z,32.69
2018-07-06T18:23:57.060Z,32.10
2018-07-06T18:26:25.034Z,33.44
2018-07-06T18:28:53.025Z,33.79
2018-07-06T18:31:21.249Z,33.65
2018-07-06T18:33:49.546Z,33.46
2018-07-06T18:36:17.625Z,33.81
2018-07-06T18:38:46.479Z,33.71
2018-07-06T18:41:15.943Z,33.54
2018-07-06T18:43:44.085Z,33.67
2018-07-06T18:46:12.148Z,34.37
2018-07-06T18:48:40.049Z,35.06
2018-07-06T18:51:08.030Z,35.13
2018-07-06T18:53:35.977Z,34.39
2018-07-06T18:56:03.969Z,34.65
2018-07-06T18:58:32.204Z,34.80
2018-07-06T19:01:00.222Z,34.80
2018-07-06T19:03:28.181Z,35.13
2018-07-06T19:05:56.466Z,35.21
2018-07-06T19:08:24.505Z,36.36
2018-07-06T19:10:52.681Z,35.81
2018-07-06T19:13:21.164Z,35.85
2018-07-06T19:15:49.517Z,36.63
2018-07-06T19:18:17.728Z,36.10
2018-07-06T19:20:45.774Z,37.87
2018-07-06T19:23:14.748Z,37.29
2018-07-06T19:25:43.389Z,37.78
2018-07-06T19:28:11.409Z,37.79
2018-07-06T19:30:40.241Z,37.61
2018-07-06T19:33:08.281Z,36.99
2018-07-06T19:35:36.390Z,38.00
2018-07-06T19:38:05.028Z,37.56
2018-07-06T19:40:33.274Z,38.20
2018-07-06T19:43:01.247Z,39.04
2018-07-06T19:45:29.306Z,38.17
2018-07-06T19:47:57.181Z,39.41
2018-07-06T19:50:25.038Z,39.18
2018-07-06T19:52:53.769Z,39.33
2018-07-06T19:55:21.814Z,38.90
2018-07-06T19:57:49.658Z,39.18
2018-07-06T20:00:17.574Z,39.79
2018-07-06T20:02:45.562Z,39.40
2018-07-06T20:05:13.602Z,39.52
2018-07-06T20:07:42.235Z,40.20
2018-07-06T20:10:10.357Z,39.76
2018-07-06T20:12:41.054Z,40.55
2018-07-06T20:15:19.252Z,40.11
2018-07-06T20:17:48.622Z,40.34
2018-07-06T20:20:18.910Z,40.72
2018-07-06T20:22:46.863Z,42.09
2018-07-06T20:25:15.509Z,41.87
2018-07-06T20:27:43.541Z,41.02
2018-07-06T20:30:12.424Z,40.83
2018-07-06T20:32:40.761Z,40.65
2018-07-06T20:35:08.647Z,41.07
2018-07-06T20:37:36.750Z,41.50
2018-07-06T20:40:04.908Z,41.50
2018-07-06T20:42:38.009Z,41.20
2018-07-06T20:45:06.986Z,41.53
2018-07-06T20:47:35.026Z,42.95
2018-07-06T20:50:03.613Z,42.75
2018-07-06T20:52:32.066Z,42.06
2018-07-06T20:55:00.104Z,42.10
2018-07-06T20:57:28.441Z,41.01
2018-07-06T20:59:56.358Z,41.95
2018-07-06T21:02:24.437Z,41.29
2018-07-06T21:04:52.514Z,41.46
2018-07-06T21:07:20.457Z,41.75
2018-07-06T21:09:48.450Z,42.61
2018-07-06T21:12:16.916Z,42.45
2018-07-06T21:14:44.817Z,43.39
2018-07-06T21:17:14.619Z,43.21
2018-07-06T21:19:42.688Z,42.77
2018-07-06T21:22:10.660Z,43.49
2018-07-06T21:24:41.831Z,42.99
2018-07-06T21:27:10.386Z,41.96
2018-07-06T21:29:40.034Z,44.37
2018-07-06T21:32:07.924Z,44.20
2018-07-06T21:34:35.869Z,45.27
2018-07-06T21:37:03.895Z,47.42
2018-07-06T21:39:31.749Z,44.14
2018-07-06T21:41:59.833Z,46.07
2018-07-06T21:44:27.690Z,47.86
2018-07-06T21:46:56.242Z,45.66
2018-07-06T21:49:24.670Z,45.42
2018-07-06T21:51:54.899Z,45.43
2018-07-06T21:54:23.995Z,46.74
2018-07-06T21:56:52.074Z,46.92
2018-07-06T21:59:20.016Z,46.78
2018-07-06T22:01:48.862Z,46.99
2018-07-06T22:04:20.639Z,47.70
2018-07-06T22:06:50.583Z,46.48
2018-07-06T22:09:18.538Z,46.59
2018-07-06T22:11:48.401Z,45.36
2018-07-06T22:14:23.188Z,47.77
2018-07-06T22:17:00.933Z,47.68
2018-07-06T22:19:28.860Z,47.09
2018-07-06T22:21:56.820Z,45.97
2018-07-06T22:24:25.192Z,47.80
2018-07-06T22:26:53.369Z,48.54
2018-07-06T22:29:21.317Z,45.88
2018-07-06T22:31:49.697Z,46.36
2018-07-06T22:34:18.516Z,45.90
2018-07-06T22:36:46.410Z,46.27
2018-07-06T22:39:14.334Z,46.25
2018-07-06T22:41:42.257Z,47.02
2018-07-06T22:44:10.289Z,46.68
2018-07-06T22:46:38.300Z,46.66
2018-07-06T22:49:06.453Z,46.86
2018-07-06T22:51:34.358Z,47.47
2018-07-06T22:54:02.583Z,48.93
2018-07-06T22:56:30.693Z,47.57
2018-07-06T22:58:58.606Z,47.50
2018-07-06T23:01:27.625Z,48.01
2018-07-06T23:03:55.696Z,47.47
2018-07-06T23:06:24.160Z,48.63
2018-07-06T23:08:52.501Z,47.10
2018-07-06T23:11:21.171Z,47.36
2018-07-06T23:13:49.175Z,46.38
2018-07-06T23:16:23.631Z,46.76
2018-07-06T23:18:55.272Z,50.66
2018-07-06T23:21:26.897Z,47.85
2018-07-06T23:23:56.004Z,47.81
2018-07-06T23:26:23.991Z,47.92
2018-07-06T23:28:51.807Z,48.19
2018-07-06T23:31:19.717Z,50.74
2018-07-06T23:33:47.605Z,49.02
2018-07-06T23:36:15.504Z,48.31
2018-07-06T23:38:43.338Z,48.18
2018-07-06T23:41:11.268Z,47.98
2018-07-06T23:43:39.208Z,48.54
2018-07-06T23:46:07.097Z,49.53
2018-07-06T23:48:34.905Z,50.93
2018-07-06T23:51:02.800Z,50.82
2018-07-06T23:53:30.709Z,49.71
2018-07-06T23:55:58.572Z,50.52
2018-07-06T23:58:26.476Z,50.81
